Kg Daf — VROG8 — position and weather

sailwx.info

Track history (hours):
 
Tides and Currents Weather Stations Pressure Air Temp Water Temp Dewpoint Dewpoint Depression Visibility Wind Speed Wind Dir Waves Ship Positions

Kg Daf

Last reported at 2017-Nov-19 03:13 UTC. Time now 2017-Nov-19 08:19 UTC.
Position N 22°19' E 114°06'.

Type: Cargo ship. MMSI: 401010000.

Date/timePositionNaut miles runAvg speedWind from/ knotsBaromVisibWave heightAir tempDewpointWater temp
2017-Nov-19 03:13N 22°19' E 114°06'310.1
2017-Nov-19 02:54N 22°16' E 114°07'510.9
2017-Nov-19 02:26N 22°12' E 114°11'410.1
2017-Nov-19 02:00N 22°09' E 114°14'5 9.5
2017-Nov-19 01:30N 22°08' E 114°19'610.9
2017-Nov-19 01:00N 22°07' E 114°25'510.3
2017-Nov-19 00:30N 22°08' E 114°30'714.1
2017-Nov-19 00:01N 22°08' E 114°38'714.2
2017-Nov-18 23:30N 22°09' E 114°45'713.7
2017-Nov-18 23:00N 22°07' E 114°53'5 9.4
2017-Nov-18 22:30N 22°06' E 114°57'2 3.4
2017-Nov-18 22:00N 22°06' E 114°59'2 3.3
2017-Nov-18 21:30N 22°06' E 115°01'2 3.4
2017-Nov-18 21:00N 22°07' E 115°02'2 3.3
2017-Nov-18 20:30N 22°07' E 115°04'3 3.5
2017-Nov-18 19:43N 22°08' E 115°07'412.5
2017-Nov-18 19:25N 22°08' E 115°11'713.6
2017-Nov-18 18:56N 22°09' E 115°18'613.5
2017-Nov-18 18:29N 22°10' E 115°24'19312.5
2017-Nov-18 02:59N 23°57' E 118°20'918.9
2017-Nov-18 02:30N 24°06' E 118°20'816.7
2017-Nov-18 02:00N 24°14' E 118°17'714.6
2017-Nov-18 01:31N 24°19' E 118°11'612.6
2017-Nov-18 01:00N 24°24' E 118°07'611.4
2017-Nov-18 00:30N 24°26' E 118°01'1 1.5
2017-Nov-17 23:58N 24°27' E 118°00'0 0.0
2017-Nov-17 23:28N 24°27' E 118°00'0 0.0
2017-Nov-17 22:58N 24°27' E 118°00'0 0.0
2017-Nov-17 22:22N 24°27' E 118°00'0 0.0
2017-Nov-17 21:58N 24°27' E 118°00'0 0.0
2017-Nov-17 21:28N 24°27' E 118°00'0 0.0
2017-Nov-17 20:58N 24°27' E 118°00'0 0.0
2017-Nov-17 20:25N 24°27' E 118°00'0 0.0
2017-Nov-17 19:55N 24°27' E 118°00'0 0.0
2017-Nov-17 19:22N 24°27' E 118°00'0 0.0
2017-Nov-17 18:58N 24°27' E 118°00'0 0.0
2017-Nov-17 18:28N 24°27' E 118°00'0 0.0
2017-Nov-17 17:58N 24°27' E 118°00'0 0.0
2017-Nov-17 17:10N 24°27' E 118°00'0 0.0
2017-Nov-17 16:52N 24°27' E 118°00'0 0.0
2017-Nov-17 13:52N 24°27' E 118°00'0 0.0
2017-Nov-17 13:22N 24°27' E 118°00'0 0.0
2017-Nov-17 12:43N 24°27' E 118°00'0 0.0
2017-Nov-17 11:10N 24°27' E 118°00'0 0.0
2017-Nov-17 10:55N 24°27' E 118°00'0 0.0
2017-Nov-17 10:19N 24°27' E 118°00'0 0.0
2017-Nov-17 09:55N 24°27' E 118°00'0 0.0
2017-Nov-17 09:19N 24°27' E 118°00'0 0.0
2017-Nov-17 08:58N 24°27' E 118°00'0 0.0
2017-Nov-17 08:25N 24°27' E 118°00'0 0.0
2017-Nov-17 07:55N 24°27' E 118°00'0 0.0
2017-Nov-17 07:28N 24°27' E 118°00'0 0.0
2017-Nov-17 06:52N 24°27' E 118°00'0 0.0
2017-Nov-17 06:28N 24°27' E 118°00'0 0.0
2017-Nov-17 05:46N 24°27' E 118°00'0 0.0
2017-Nov-17 05:16N 24°27' E 118°00'0 0.0
2017-Nov-17 04:58N 24°27' E 118°00'0 0.0
2017-Nov-17 04:28N 24°27' E 118°00'0 0.0
2017-Nov-17 03:40N 24°27' E 118°00'0 0.0
2017-Nov-17 03:22N 24°27' E 118°00'0 0.0
2017-Nov-17 02:22N 24°27' E 118°00'0 0.0
2017-Nov-17 01:52N 24°27' E 118°00'0 0.0
2017-Nov-17 01:25N 24°27' E 118°00'0 0.0
2017-Nov-17 01:00N 24°27' E 118°00'0 0.9
2017-Nov-17 00:30N 24°27' E 118°01'511.0
2017-Nov-17 00:01N 24°24' E 118°06'611.2
2017-Nov-16 23:31N 24°20' E 118°10'815.2
2017-Nov-16 23:00N 24°14' E 118°16'612.4
2017-Nov-16 22:30N 24°10' E 118°20'4 8.8
2017-Nov-16 22:00N 24°09' E 118°25'120 8.3
2017-Nov-16 07:30N 22°44' E 119°58'612.7
2017-Nov-16 07:00N 22°39' E 120°01'612.3
2017-Nov-16 06:30N 22°34' E 120°06'611.5
2017-Nov-16 06:00N 22°32' E 120°12'612.0
2017-Nov-16 05:30N 22°33' E 120°18'2 2.9
2017-Nov-16 04:56N 22°33' E 120°20'0 0.6
2017-Nov-16 04:28N 22°33' E 120°20'0 0.0
2017-Nov-16 03:58N 22°33' E 120°20'0 0.0
2017-Nov-16 03:25N 22°33' E 120°20'0 0.0
2017-Nov-15 23:35N 22°33' E 120°20'0 3.0
2017-Nov-15 23:26N 22°33' E 120°20'4 8.2
2017-Nov-15 23:00N 22°32' E 120°16'2 5.0
2017-Nov-15 22:30N 22°32' E 120°13'5 9.6
2017-Nov-15 22:01N 22°33' E 120°08'815.4
2017-Nov-15 21:30N 22°38' E 120°02'815.4
2017-Nov-15 21:01N 22°45' E 119°58'  
Track history (hours):
 
Tides and Currents Weather Stations Pressure Air Temp Water Temp Dewpoint Dewpoint Depression Visibility Wind Speed Wind Dir Waves Ship Positions

Kg Daf

Last reported at 2017-Nov-19 03:13 UTC. Time now 2017-Nov-19 08:19 UTC.
Position N 22°19' E 114°06'.

Type: Cargo ship. MMSI: 401010000.

Date/timePositionNaut miles runAvg speedWind from/ knotsBaromVisibWave heightAir tempDewpointWater temp
2017-Nov-19 03:13N 22°19' E 114°06'310.1
2017-Nov-19 02:54N 22°16' E 114°07'510.9
2017-Nov-19 02:26N 22°12' E 114°11'410.1
2017-Nov-19 02:00N 22°09' E 114°14'5 9.5
2017-Nov-19 01:30N 22°08' E 114°19'610.9
2017-Nov-19 01:00N 22°07' E 114°25'510.3
2017-Nov-19 00:30N 22°08' E 114°30'714.1
2017-Nov-19 00:01N 22°08' E 114°38'714.2
2017-Nov-18 23:30N 22°09' E 114°45'713.7
2017-Nov-18 23:00N 22°07' E 114°53'5 9.4
2017-Nov-18 22:30N 22°06' E 114°57'2 3.4
2017-Nov-18 22:00N 22°06' E 114°59'2 3.3
2017-Nov-18 21:30N 22°06' E 115°01'2 3.4
2017-Nov-18 21:00N 22°07' E 115°02'2 3.3
2017-Nov-18 20:30N 22°07' E 115°04'3 3.5
2017-Nov-18 19:43N 22°08' E 115°07'412.5
2017-Nov-18 19:25N 22°08' E 115°11'713.6
2017-Nov-18 18:56N 22°09' E 115°18'613.5
2017-Nov-18 18:29N 22°10' E 115°24'19312.5
2017-Nov-18 02:59N 23°57' E 118°20'918.9
2017-Nov-18 02:30N 24°06' E 118°20'816.7
2017-Nov-18 02:00N 24°14' E 118°17'714.6
2017-Nov-18 01:31N 24°19' E 118°11'612.6
2017-Nov-18 01:00N 24°24' E 118°07'611.4
2017-Nov-18 00:30N 24°26' E 118°01'1 1.5
2017-Nov-17 23:58N 24°27' E 118°00'0 0.0
2017-Nov-17 23:28N 24°27' E 118°00'0 0.0
2017-Nov-17 22:58N 24°27' E 118°00'0 0.0
2017-Nov-17 22:22N 24°27' E 118°00'0 0.0
2017-Nov-17 21:58N 24°27' E 118°00'0 0.0
2017-Nov-17 21:28N 24°27' E 118°00'0 0.0
2017-Nov-17 20:58N 24°27' E 118°00'0 0.0
2017-Nov-17 20:25N 24°27' E 118°00'0 0.0
2017-Nov-17 19:55N 24°27' E 118°00'0 0.0
2017-Nov-17 19:22N 24°27' E 118°00'0 0.0
2017-Nov-17 18:58N 24°27' E 118°00'0 0.0
2017-Nov-17 18:28N 24°27' E 118°00'0 0.0
2017-Nov-17 17:58N 24°27' E 118°00'0 0.0
2017-Nov-17 17:10N 24°27' E 118°00'0 0.0
2017-Nov-17 16:52N 24°27' E 118°00'0 0.0
2017-Nov-17 13:52N 24°27' E 118°00'0 0.0
2017-Nov-17 13:22N 24°27' E 118°00'0 0.0
2017-Nov-17 12:43N 24°27' E 118°00'0 0.0
2017-Nov-17 11:10N 24°27' E 118°00'0 0.0
2017-Nov-17 10:55N 24°27' E 118°00'0 0.0
2017-Nov-17 10:19N 24°27' E 118°00'0 0.0
2017-Nov-17 09:55N 24°27' E 118°00'0 0.0
2017-Nov-17 09:19N 24°27' E 118°00'0 0.0
2017-Nov-17 08:58N 24°27' E 118°00'0 0.0
2017-Nov-17 08:25N 24°27' E 118°00'0 0.0
2017-Nov-17 07:55N 24°27' E 118°00'0 0.0
2017-Nov-17 07:28N 24°27' E 118°00'0 0.0
2017-Nov-17 06:52N 24°27' E 118°00'0 0.0
2017-Nov-17 06:28N 24°27' E 118°00'0 0.0
2017-Nov-17 05:46N 24°27' E 118°00'0 0.0
2017-Nov-17 05:16N 24°27' E 118°00'0 0.0
2017-Nov-17 04:58N 24°27' E 118°00'0 0.0
2017-Nov-17 04:28N 24°27' E 118°00'0 0.0
2017-Nov-17 03:40N 24°27' E 118°00'0 0.0
2017-Nov-17 03:22N 24°27' E 118°00'0 0.0
2017-Nov-17 02:22N 24°27' E 118°00'0 0.0
2017-Nov-17 01:52N 24°27' E 118°00'0 0.0
2017-Nov-17 01:25N 24°27' E 118°00'0 0.0
2017-Nov-17 01:00N 24°27' E 118°00'0 0.9
2017-Nov-17 00:30N 24°27' E 118°01'511.0
2017-Nov-17 00:01N 24°24' E 118°06'611.2
2017-Nov-16 23:31N 24°20' E 118°10'815.2
2017-Nov-16 23:00N 24°14' E 118°16'612.4
2017-Nov-16 22:30N 24°10' E 118°20'4 8.8
2017-Nov-16 22:00N 24°09' E 118°25'120 8.3
2017-Nov-16 07:30N 22°44' E 119°58'612.7
2017-Nov-16 07:00N 22°39' E 120°01'612.3
2017-Nov-16 06:30N 22°34' E 120°06'611.5
2017-Nov-16 06:00N 22°32' E 120°12'612.0
2017-Nov-16 05:30N 22°33' E 120°18'2 2.9
2017-Nov-16 04:56N 22°33' E 120°20'0 0.6
2017-Nov-16 04:28N 22°33' E 120°20'0 0.0
2017-Nov-16 03:58N 22°33' E 120°20'0 0.0
2017-Nov-16 03:25N 22°33' E 120°20'0 0.0
2017-Nov-15 23:35N 22°33' E 120°20'0 3.0
2017-Nov-15 23:26N 22°33' E 120°20'4 8.2
2017-Nov-15 23:00N 22°32' E 120°16'2 5.0
2017-Nov-15 22:30N 22°32' E 120°13'5 9.6
2017-Nov-15 22:01N 22°33' E 120°08'815.4
2017-Nov-15 21:30N 22°38' E 120°02'815.4
2017-Nov-15 21:01N 22°45' E 119°58'  

Dump ship's entire track history